createdAt,value
2023-04-18T00:00:30.738Z,18.02
2023-04-18T00:03:03.229Z,16.98
2023-04-18T00:05:34.202Z,18.92
2023-04-18T00:08:06.969Z,18.00
2023-04-18T00:10:37.074Z,16.83
2023-04-18T00:13:07.636Z,17.38
2023-04-18T00:15:37.982Z,18.30
2023-04-18T00:18:08.748Z,17.48
2023-04-18T00:20:39.351Z,18.23
2023-04-18T00:23:14.247Z,17.02
2023-04-18T00:25:44.489Z,17.40
2023-04-18T00:28:14.440Z,18.20
2023-04-18T00:30:44.510Z,17.52
2023-04-18T00:33:14.696Z,17.73
2023-04-18T00:35:44.692Z,17.85
2023-04-18T00:38:17.310Z,16.88
2023-04-18T00:40:47.354Z,18.17
2023-04-18T00:43:17.663Z,18.05
2023-04-18T00:45:47.755Z,18.35
2023-04-18T00:48:18.020Z,18.25
2023-04-18T00:50:48.854Z,18.73
2023-04-18T00:53:21.857Z,18.55
2023-04-18T00:55:52.705Z,18.10
2023-04-18T00:58:23.452Z,17.92
2023-04-18T01:00:54.147Z,17.65
2023-04-18T01:03:25.891Z,17.90
2023-04-18T01:05:57.701Z,18.10
2023-04-18T01:08:30.630Z,17.95
2023-04-18T01:11:00.658Z,17.83
2023-04-18T01:13:30.647Z,19.08
2023-04-18T01:16:00.776Z,17.45
2023-04-18T01:18:31.656Z,17.35
2023-04-18T01:21:02.661Z,17.40
2023-04-18T01:23:35.576Z,17.65
2023-04-18T01:26:08.481Z,17.83
2023-04-18T01:28:40.093Z,18.10
2023-04-18T01:31:10.273Z,19.00
2023-04-18T01:33:40.565Z,18.02
2023-04-18T01:36:10.960Z,17.13
2023-04-18T01:38:41.062Z,18.15
2023-04-18T01:41:13.806Z,18.80
2023-04-18T01:43:43.824Z,17.77
2023-04-18T01:46:14.105Z,18.13
2023-04-18T01:48:44.130Z,18.20
2023-04-18T01:51:14.227Z,18.20
2023-04-18T01:53:44.568Z,17.85
2023-04-18T01:56:17.200Z,17.83
2023-04-18T01:58:47.277Z,18.10
2023-04-18T02:01:17.325Z,18.45
2023-04-18T02:03:47.496Z,19.33
2023-04-18T02:06:17.753Z,18.65
2023-04-18T02:08:47.751Z,18.70
2023-04-18T02:11:20.536Z,18.40
2023-04-18T02:13:50.786Z,17.02
2023-04-18T02:16:21.075Z,17.02
2023-04-18T02:18:52.623Z,17.77
2023-04-18T02:21:22.882Z,17.63
2023-04-18T02:23:53.021Z,18.55
2023-04-18T02:26:25.917Z,16.90
2023-04-18T02:28:56.044Z,16.65
2023-04-18T02:31:26.187Z,16.98
2023-04-18T02:33:56.275Z,17.77
2023-04-18T02:36:28.281Z,17.50
2023-04-18T02:38:58.412Z,15.75
2023-04-18T02:41:31.378Z,17.02
2023-04-18T02:44:02.046Z,17.08
2023-04-18T02:46:32.248Z,17.65
2023-04-18T02:49:02.382Z,17.65
2023-04-18T02:51:32.350Z,17.75
2023-04-18T02:54:02.349Z,18.75
2023-04-18T02:56:40.081Z,17.15
2023-04-18T02:59:10.783Z,16.48
2023-04-18T03:01:41.100Z,17.70
2023-04-18T03:04:11.480Z,17.17
2023-04-18T03:06:41.804Z,17.65
2023-04-18T03:09:11.948Z,18.00
2023-04-18T03:11:44.467Z,17.98
2023-04-18T03:14:14.622Z,16.60
2023-04-18T03:16:45.141Z,17.50
2023-04-18T03:19:15.366Z,16.88
2023-04-18T03:21:45.496Z,17.77
2023-04-18T03:24:15.684Z,16.98
2023-04-18T03:26:48.890Z,18.33
2023-04-18T03:29:23.463Z,17.75
2023-04-18T03:31:53.514Z,18.20
2023-04-18T03:34:23.644Z,19.35
2023-04-18T03:36:53.887Z,17.77
2023-04-18T03:39:23.997Z,17.23
2023-04-18T03:41:56.641Z,18.42
2023-04-18T03:44:26.713Z,17.73
2023-04-18T03:46:57.549Z,17.90
2023-04-18T03:49:27.730Z,18.05
2023-04-18T03:51:57.904Z,17.65
2023-04-18T03:54:28.178Z,18.17
2023-04-18T03:57:01.084Z,17.33
2023-04-18T03:59:31.093Z,17.00
2023-04-18T04:02:01.336Z,17.85
2023-04-18T04:04:31.656Z,18.58
2023-04-18T04:07:02.123Z,17.67
2023-04-18T04:09:32.333Z,18.90
2023-04-18T04:12:05.147Z,17.65
2023-04-18T04:14:35.414Z,18.05
2023-04-18T04:17:05.718Z,20.13
2023-04-18T04:19:35.869Z,18.88
2023-04-18T04:22:05.970Z,18.83
2023-04-18T04:24:38.505Z,17.52
2023-04-18T04:27:12.734Z,19.08
2023-04-18T04:29:43.889Z,18.88
2023-04-18T04:32:13.951Z,18.20
2023-04-18T04:34:44.104Z,19.05
2023-04-18T04:37:14.225Z,18.65
2023-04-18T04:39:44.302Z,19.15
2023-04-18T04:42:17.005Z,19.13
2023-04-18T04:44:47.466Z,20.15
2023-04-18T04:47:17.545Z,20.08
2023-04-18T04:49:47.743Z,20.60
2023-04-18T04:52:17.877Z,20.23
2023-04-18T04:54:48.353Z,20.02
2023-04-18T04:57:21.112Z,20.70
2023-04-18T04:59:51.186Z,20.83
2023-04-18T05:02:23.535Z,20.65
2023-04-18T05:04:53.905Z,20.75
2023-04-18T05:07:24.030Z,20.38
2023-04-18T05:09:55.051Z,20.88
2023-04-18T05:12:27.684Z,20.35
2023-04-18T05:14:57.679Z,20.67
2023-04-18T05:17:27.783Z,20.10
2023-04-18T05:19:57.805Z,21.17
2023-04-18T05:22:27.885Z,21.92
2023-04-18T05:24:57.964Z,22.02
2023-04-18T05:27:31.051Z,22.27
2023-04-18T05:30:01.219Z,22.27
2023-04-18T05:32:31.343Z,21.42
2023-04-18T05:35:01.485Z,23.50
2023-04-18T05:37:31.542Z,23.67
2023-04-18T05:40:01.593Z,21.98
2023-04-18T05:42:34.371Z,23.50
2023-04-18T05:45:04.529Z,22.92
2023-04-18T05:47:34.613Z,22.92
2023-04-18T05:50:04.730Z,22.38
2023-04-18T05:52:35.996Z,22.00
2023-04-18T05:55:06.308Z,21.70
2023-04-18T05:57:40.740Z,21.73
2023-04-18T06:00:14.001Z,22.52
2023-04-18T06:02:44.083Z,24.17
2023-04-18T06:05:15.152Z,26.50
2023-04-18T06:07:45.435Z,25.23
2023-04-18T06:10:16.040Z,23.77
2023-04-18T06:12:48.771Z,23.17
2023-04-18T06:15:18.961Z,23.25
2023-04-18T06:17:49.071Z,20.48
2023-04-18T06:20:19.156Z,22.10
2023-04-18T06:22:49.244Z,22.08
2023-04-18T06:25:19.585Z,21.88
2023-04-18T06:27:52.448Z,21.48
2023-04-18T06:30:22.709Z,20.63
2023-04-18T06:32:52.854Z,22.60
2023-04-18T06:35:24.600Z,21.15
2023-04-18T06:37:56.650Z,21.67
2023-04-18T06:40:27.018Z,21.15
2023-04-18T06:42:59.708Z,21.75
2023-04-18T06:45:29.843Z,21.88
2023-04-18T06:48:00.212Z,20.65
2023-04-18T06:50:30.448Z,22.08
2023-04-18T06:53:00.635Z,21.38
2023-04-18T06:55:30.896Z,20.35
2023-04-18T06:58:03.670Z,20.80
2023-04-18T07:00:33.823Z,20.70
2023-04-18T07:03:11.337Z,20.60
2023-04-18T07:05:42.194Z,20.73
2023-04-18T07:08:12.334Z,19.45
2023-04-18T07:10:42.480Z,20.90
2023-04-18T07:13:17.934Z,21.00
2023-04-18T07:15:48.161Z,20.52
2023-04-18T07:18:30.210Z,20.33
2023-04-18T07:21:07.970Z,20.60
2023-04-18T07:23:38.525Z,19.90
2023-04-18T07:26:10.189Z,20.20
2023-04-18T07:28:42.881Z,19.15
2023-04-18T07:31:14.654Z,20.17
2023-04-18T07:33:44.892Z,19.90
2023-04-18T07:36:15.269Z,19.83
2023-04-18T07:38:45.419Z,18.25
2023-04-18T07:41:15.566Z,19.42
2023-04-18T07:43:48.214Z,19.63
2023-04-18T07:46:18.355Z,19.00
2023-04-18T07:48:48.772Z,19.40
2023-04-18T07:51:18.874Z,18.17
2023-04-18T07:53:48.969Z,18.60
2023-04-18T07:56:19.092Z,17.60
2023-04-18T07:58:51.754Z,16.45
2023-04-18T08:01:24.435Z,18.85
2023-04-18T08:03:56.526Z,18.23
2023-04-18T08:06:27.237Z,18.10
2023-04-18T08:08:59.169Z,18.38
2023-04-18T08:11:30.035Z,18.52
2023-04-18T08:14:03.376Z,19.60
2023-04-18T08:16:33.501Z,18.52
2023-04-18T08:19:03.543Z,18.15
2023-04-18T08:21:35.270Z,18.13
2023-04-18T08:24:05.320Z,17.77
2023-04-18T08:26:35.404Z,18.95
2023-04-18T08:29:08.713Z,18.75
2023-04-18T08:31:38.932Z,18.10
2023-04-18T08:34:09.036Z,17.67
2023-04-18T08:36:39.201Z,16.90
2023-04-18T08:39:09.185Z,17.77
2023-04-18T08:41:40.757Z,18.15
2023-04-18T08:44:13.716Z,17.10
2023-04-18T08:46:44.286Z,17.25
2023-04-18T08:49:14.870Z,17.42
2023-04-18T08:51:47.354Z,17.70
2023-04-18T08:54:18.489Z,17.80
2023-04-18T08:56:48.653Z,16.65
2023-04-18T08:59:21.376Z,17.00
2023-04-18T09:02:01.752Z,15.15
2023-04-18T09:04:41.158Z,15.88
2023-04-18T09:07:14.057Z,15.20
2023-04-18T09:09:48.995Z,16.83
2023-04-18T09:12:22.706Z,16.75
2023-04-18T09:14:59.853Z,15.65
2023-04-18T09:17:41.899Z,16.95
2023-04-18T09:20:15.935Z,14.38
2023-04-18T09:22:50.839Z,17.13
2023-04-18T09:25:34.643Z,15.80
2023-04-18T09:28:06.441Z,16.58
2023-04-18T09:30:42.346Z,15.30
2023-04-18T09:33:13.030Z,15.15
2023-04-18T09:35:43.267Z,16.70
2023-04-18T09:38:13.601Z,16.05
2023-04-18T09:40:43.772Z,16.33
2023-04-18T09:43:24.166Z,16.40
2023-04-18T09:45:57.245Z,17.48
2023-04-18T09:48:27.481Z,16.10
2023-04-18T09:50:58.377Z,16.83
2023-04-18T09:53:28.861Z,16.00
2023-04-18T09:55:58.950Z,17.40
2023-04-18T09:58:33.492Z,17.00
2023-04-18T10:01:07.634Z,16.27
2023-04-18T10:03:45.234Z,17.35
2023-04-18T10:06:19.353Z,14.88
2023-04-18T10:08:52.004Z,15.50
2023-04-18T10:11:22.324Z,16.10
2023-04-18T10:13:57.135Z,15.32
2023-04-18T10:16:32.516Z,16.40
2023-04-18T10:19:26.156Z,13.43
2023-04-18T10:21:57.625Z,16.70
2023-04-18T10:24:53.636Z,14.73
2023-04-18T10:28:01.836Z,15.27
2023-04-18T10:31:03.870Z,15.32
2023-04-18T10:33:42.785Z,15.30
2023-04-18T10:36:20.963Z,14.27
2023-04-18T10:38:53.178Z,15.68
2023-04-18T10:41:28.639Z,16.00
2023-04-18T10:44:26.363Z,14.25
2023-04-18T10:47:26.991Z,15.07
2023-04-18T10:50:05.955Z,15.55
2023-04-18T10:52:37.218Z,15.88
2023-04-18T10:55:29.932Z,15.73
2023-04-18T10:58:00.878Z,15.00
2023-04-18T11:00:34.954Z,16.42
2023-04-18T11:03:05.166Z,13.02
2023-04-18T11:05:35.434Z,17.90
2023-04-18T11:08:06.492Z,18.85
2023-04-18T11:10:36.563Z,16.45
2023-04-18T11:13:08.858Z,17.50
2023-04-18T11:15:41.791Z,18.15
2023-04-18T11:18:12.686Z,19.60
2023-04-18T11:20:49.856Z,18.10
2023-04-18T11:23:25.052Z,16.65
2023-04-18T11:25:58.426Z,15.88
2023-04-18T11:28:28.810Z,17.50
2023-04-18T11:31:04.800Z,16.42
2023-04-18T11:33:34.910Z,16.63
2023-04-18T11:36:05.812Z,13.27
2023-04-18T11:38:36.000Z,18.05
2023-04-18T11:41:06.273Z,15.43
2023-04-18T11:43:36.287Z,18.23
2023-04-18T11:46:09.122Z,16.00
2023-04-18T11:48:39.360Z,20.52
2023-04-18T11:51:10.246Z,18.88
2023-04-18T11:53:41.737Z,17.65
2023-04-18T11:56:16.280Z,17.60
2023-04-18T11:58:46.362Z,15.63
2023-04-18T12:01:24.260Z,12.80
2023-04-18T12:04:05.315Z,17.70
2023-04-18T12:06:51.060Z,11.20
2023-04-18T12:09:22.099Z,9.32
2023-04-18T12:12:03.055Z,14.95
2023-04-18T12:14:33.690Z,11.77
2023-04-18T12:17:06.795Z,10.40
2023-04-18T12:19:37.440Z,11.02
2023-04-18T12:22:09.550Z,9.68
2023-04-18T12:24:39.787Z,11.15
2023-04-18T12:27:09.906Z,3.72
2023-04-18T12:29:40.102Z,11.32
2023-04-18T12:32:12.720Z,9.00
2023-04-18T12:34:42.833Z,11.70
2023-04-18T12:37:12.908Z,10.07
2023-04-18T12:39:42.969Z,10.85
2023-04-18T12:42:13.092Z,10.63
2023-04-18T12:44:43.263Z,5.88
2023-04-18T12:47:15.984Z,9.35
2023-04-18T12:49:46.074Z,10.07
2023-04-18T12:52:16.347Z,8.90
2023-04-18T12:54:46.584Z,10.23
2023-04-18T12:57:16.706Z,8.00
2023-04-18T12:59:46.818Z,3.83
2023-04-18T13:02:19.606Z,10.32
2023-04-18T13:04:50.021Z,7.82
2023-04-18T13:07:20.389Z,7.85
2023-04-18T13:09:51.459Z,7.15
2023-04-18T13:12:22.014Z,10.48
2023-04-18T13:14:52.189Z,10.18
2023-04-18T13:17:25.030Z,7.20
2023-04-18T13:19:55.559Z,8.98
2023-04-18T13:22:25.949Z,10.02
2023-04-18T13:24:56.188Z,9.35
2023-04-18T13:27:26.364Z,8.15
2023-04-18T13:29:57.508Z,5.88
2023-04-18T13:32:30.663Z,8.90
2023-04-18T13:35:00.972Z,5.57
2023-04-18T13:37:31.547Z,8.73
2023-04-18T13:40:01.749Z,8.02
2023-04-18T13:42:31.856Z,9.15
2023-04-18T13:45:02.112Z,10.50
2023-04-18T13:47:35.336Z,8.85
2023-04-18T13:50:05.882Z,9.32
2023-04-18T13:52:36.573Z,6.90
2023-04-18T13:55:07.330Z,8.90
2023-04-18T13:57:37.887Z,7.15
2023-04-18T14:00:11.390Z,8.60
2023-04-18T14:02:44.221Z,7.43
2023-04-18T14:05:14.453Z,7.72
2023-04-18T14:07:44.609Z,7.80
2023-04-18T14:10:15.149Z,8.07
2023-04-18T14:12:45.209Z,8.35
2023-04-18T14:15:15.554Z,9.57
2023-04-18T14:17:48.228Z,9.80
2023-04-18T14:20:19.432Z,9.20
2023-04-18T14:22:52.325Z,6.97
2023-04-18T14:25:23.324Z,9.80
2023-04-18T14:28:09.807Z,11.52
2023-04-18T14:30:41.286Z,8.68
2023-04-18T14:33:14.006Z,8.13
2023-04-18T14:35:44.336Z,8.95
2023-04-18T14:38:14.461Z,4.80
2023-04-18T14:40:44.755Z,3.85
2023-04-18T14:43:15.294Z,11.70
2023-04-18T14:45:45.352Z,10.02
2023-04-18T14:48:18.125Z,11.35
2023-04-18T14:50:48.209Z,8.88
2023-04-18T14:53:18.329Z,10.63
2023-04-18T14:55:48.425Z,9.80
2023-04-18T14:58:18.759Z,4.97
2023-04-18T15:00:49.415Z,8.40
2023-04-18T15:03:22.502Z,9.65
2023-04-18T15:05:53.379Z,9.52
2023-04-18T15:08:23.568Z,8.82
2023-04-18T15:10:53.836Z,8.60
2023-04-18T15:13:24.044Z,8.88
2023-04-18T15:15:58.260Z,9.70
2023-04-18T15:18:31.067Z,9.27
2023-04-18T15:21:02.998Z,10.57
2023-04-18T15:23:33.258Z,5.55
2023-04-18T15:26:03.252Z,7.47
2023-04-18T15:28:34.456Z,8.85
2023-04-18T15:31:04.599Z,7.40
2023-04-18T15:33:37.416Z,6.88
2023-04-18T15:36:09.128Z,8.20
2023-04-18T15:38:40.218Z,7.45
2023-04-18T15:41:10.368Z,4.18
2023-04-18T15:43:42.244Z,2.22
2023-04-18T15:46:13.101Z,4.25
2023-04-18T15:48:45.867Z,5.50
2023-04-18T15:51:16.144Z,5.63
2023-04-18T15:53:46.637Z,3.75
2023-04-18T15:56:17.118Z,4.05
2023-04-18T15:58:47.410Z,4.82
2023-04-18T16:01:19.032Z,3.83
2023-04-18T16:03:51.993Z,5.25
2023-04-18T16:06:23.703Z,2.80
2023-04-18T16:08:53.795Z,4.60
2023-04-18T16:11:26.328Z,2.50
2023-04-18T16:13:57.807Z,4.25
2023-04-18T16:16:28.609Z,4.50
2023-04-18T16:19:01.271Z,3.58
2023-04-18T16:21:32.666Z,5.13
2023-04-18T16:24:03.074Z,5.22
2023-04-18T16:26:33.173Z,4.53
2023-04-18T16:29:03.370Z,4.45
2023-04-18T16:31:33.412Z,5.07
2023-04-18T16:34:06.331Z,4.70
2023-04-18T16:36:37.285Z,4.18
2023-04-18T16:39:07.576Z,4.93
2023-04-18T16:41:37.731Z,5.00
2023-04-18T16:44:08.190Z,5.30
2023-04-18T16:46:38.431Z,5.30
2023-04-18T16:49:11.665Z,5.50
2023-04-18T16:51:41.891Z,5.32
2023-04-18T16:54:12.311Z,5.28
2023-04-18T16:56:44.826Z,4.88
2023-04-18T16:59:15.112Z,5.40
2023-04-18T17:01:45.282Z,5.03
2023-04-18T17:04:18.341Z,5.63
2023-04-18T17:06:49.763Z,5.05
2023-04-18T17:09:21.710Z,4.88
2023-04-18T17:11:51.943Z,4.45
2023-04-18T17:14:22.159Z,5.60
2023-04-18T17:16:53.769Z,5.93
2023-04-18T17:19:26.677Z,6.07
2023-04-18T17:21:56.937Z,4.65
2023-04-18T17:24:27.300Z,5.43
2023-04-18T17:26:58.115Z,5.35
2023-04-18T17:29:28.237Z,5.50
2023-04-18T17:31:58.401Z,5.80
2023-04-18T17:34:31.136Z,5.65
2023-04-18T17:37:01.253Z,5.65
2023-04-18T17:39:31.485Z,5.82
2023-04-18T17:42:02.333Z,4.40
2023-04-18T17:44:32.618Z,5.40
2023-04-18T17:47:02.844Z,5.47
2023-04-18T17:49:36.521Z,4.90
2023-04-18T17:52:07.413Z,5.40
2023-04-18T17:54:37.553Z,6.40
2023-04-18T17:57:07.766Z,5.80
2023-04-18T17:59:37.986Z,5.45
2023-04-18T18:02:08.300Z,5.82
2023-04-18T18:04:41.943Z,5.68
2023-04-18T18:07:12.200Z,5.07
2023-04-18T18:09:42.247Z,5.22
2023-04-18T18:12:12.648Z,5.40
2023-04-18T18:14:43.342Z,5.90
2023-04-18T18:17:14.115Z,5.40
2023-04-18T18:19:46.702Z,5.97
2023-04-18T18:22:17.692Z,5.25
2023-04-18T18:24:50.635Z,5.70
2023-04-18T18:27:20.922Z,6.13
2023-04-18T18:29:51.065Z,6.25
2023-04-18T18:32:22.040Z,5.85
2023-04-18T18:34:54.748Z,5.57
2023-04-18T18:37:26.214Z,5.43
2023-04-18T18:39:57.336Z,6.70
2023-04-18T18:42:28.694Z,5.45
2023-04-18T18:44:58.694Z,6.32
2023-04-18T18:47:30.674Z,6.50
2023-04-18T18:50:04.043Z,5.47
2023-04-18T18:52:34.317Z,5.93
2023-04-18T18:55:04.781Z,6.75
2023-04-18T18:57:34.783Z,6.00
2023-04-18T19:00:04.891Z,6.20
2023-04-18T19:02:36.417Z,6.38
2023-04-18T19:05:12.716Z,6.20
2023-04-18T19:07:43.852Z,6.60
2023-04-18T19:10:14.297Z,6.07
2023-04-18T19:12:44.302Z,6.18
2023-04-18T19:15:15.298Z,6.20
2023-04-18T19:17:45.583Z,6.80
2023-04-18T19:20:18.344Z,6.88
2023-04-18T19:22:48.413Z,5.95
2023-04-18T19:25:18.545Z,6.85
2023-04-18T19:27:48.612Z,6.68
2023-04-18T19:30:18.672Z,6.15
2023-04-18T19:32:48.797Z,6.53
2023-04-18T19:35:21.527Z,6.80
2023-04-18T19:37:51.612Z,6.82
2023-04-18T19:40:23.796Z,6.90
2023-04-18T19:42:53.935Z,6.38
2023-04-18T19:45:24.035Z,7.35
2023-04-18T19:47:54.308Z,6.63
2023-04-18T19:50:27.122Z,6.30
2023-04-18T19:52:57.234Z,6.38
2023-04-18T19:55:27.810Z,6.22
2023-04-18T19:58:02.113Z,7.05
2023-04-18T20:00:34.209Z,6.97
2023-04-18T20:03:04.681Z,7.18
2023-04-18T20:05:37.551Z,6.57
2023-04-18T20:08:08.352Z,7.38
2023-04-18T20:10:38.580Z,7.38
2023-04-18T20:13:08.591Z,7.20
2023-04-18T20:15:39.003Z,9.30
2023-04-18T20:18:09.232Z,8.00
2023-04-18T20:20:41.818Z,8.07
2023-04-18T20:23:11.888Z,8.90
2023-04-18T20:25:41.888Z,8.18
2023-04-18T20:28:11.862Z,8.70
2023-04-18T20:30:41.920Z,7.38
2023-04-18T20:33:12.000Z,7.65
2023-04-18T20:35:44.677Z,8.07
2023-04-18T20:38:15.109Z,8.48
2023-04-18T20:40:45.519Z,7.43
2023-04-18T20:43:17.564Z,7.72
2023-04-18T20:45:51.094Z,8.27
2023-04-18T20:48:21.631Z,7.68
2023-04-18T20:50:54.435Z,7.97
2023-04-18T20:53:26.221Z,7.13
2023-04-18T20:55:56.250Z,7.72
2023-04-18T20:58:26.342Z,8.85
2023-04-18T21:00:56.617Z,8.63
2023-04-18T21:03:29.310Z,8.35
2023-04-18T21:06:02.323Z,7.82
2023-04-18T21:08:34.803Z,8.55
2023-04-18T21:11:05.020Z,8.90
2023-04-18T21:13:35.899Z,8.40
2023-04-18T21:16:07.965Z,8.20
2023-04-18T21:18:38.178Z,8.80
2023-04-18T21:21:11.842Z,9.07
2023-04-18T21:23:45.778Z,8.80
2023-04-18T21:26:16.200Z,9.63
2023-04-18T21:28:58.160Z,8.73
2023-04-18T21:31:29.219Z,9.77
2023-04-18T21:34:00.702Z,9.48
2023-04-18T21:36:34.357Z,8.80
2023-04-18T21:39:04.869Z,9.30
2023-04-18T21:41:35.100Z,9.48
2023-04-18T21:44:05.207Z,9.00
2023-04-18T21:46:35.212Z,8.90
2023-04-18T21:49:05.564Z,8.52
2023-04-18T21:51:38.334Z,9.38
2023-04-18T21:54:10.172Z,9.00
2023-04-18T21:56:40.242Z,8.52
2023-04-18T21:59:10.841Z,9.88
2023-04-18T22:01:40.994Z,9.57
2023-04-18T22:04:12.551Z,10.48
2023-04-18T22:06:45.275Z,9.38
2023-04-18T22:09:19.315Z,9.82
2023-04-18T22:11:51.331Z,9.50
2023-04-18T22:14:22.446Z,8.93
2023-04-18T22:16:54.234Z,8.55
2023-04-18T22:19:24.931Z,8.88
2023-04-18T22:21:57.670Z,9.32
2023-04-18T22:24:28.460Z,8.45
2023-04-18T22:26:58.983Z,7.60
2023-04-18T22:29:28.997Z,8.20
2023-04-18T22:31:59.054Z,8.07
2023-04-18T22:34:29.109Z,8.18
2023-04-18T22:37:01.728Z,8.10
2023-04-18T22:39:31.771Z,7.95
2023-04-18T22:42:01.701Z,8.63
2023-04-18T22:44:31.697Z,6.85
2023-04-18T22:47:03.196Z,6.93
2023-04-18T22:49:33.235Z,6.50
2023-04-18T22:52:06.433Z,6.85
2023-04-18T22:54:36.622Z,6.65
2023-04-18T22:57:06.972Z,6.25
2023-04-18T22:59:37.305Z,7.20
2023-04-18T23:02:07.507Z,6.40
2023-04-18T23:04:37.635Z,6.43
2023-04-18T23:07:10.427Z,5.97
2023-04-18T23:09:40.517Z,6.80
2023-04-18T23:12:10.667Z,5.97
2023-04-18T23:14:41.929Z,6.18
2023-04-18T23:17:11.905Z,6.35
2023-04-18T23:19:42.103Z,5.90
2023-04-18T23:22:14.765Z,6.35
2023-04-18T23:24:44.787Z,6.95
2023-04-18T23:27:14.914Z,5.93
2023-04-18T23:29:45.624Z,6.15
2023-04-18T23:32:15.738Z,5.75
2023-04-18T23:34:45.861Z,5.50
2023-04-18T23:37:18.539Z,5.55
2023-04-18T23:39:48.592Z,5.03
2023-04-18T23:42:18.594Z,5.30
2023-04-18T23:44:48.585Z,4.90
2023-04-18T23:47:18.643Z,5.80
2023-04-18T23:49:48.657Z,5.18
2023-04-18T23:52:21.541Z,5.40
2023-04-18T23:54:51.905Z,5.07
2023-04-18T23:57:21.961Z,4.70
2023-04-18T23:59:51.997Z,5.03
